Time;durP1;ratioP1;P1;durP2;ratioP2;P2;SDS_P1;SDS_P2;PMS_P1;PMS_P2;Temp;Humidity;BMP_temperature;BMP_pressure;BME280_temperature;BME280_humidity;BME280_pressure;Samples;Min_cycle;Max_cycle;Signal;HPM_P1;HPM_P2
2023/05/28 00:00:28;;;;;;;15.38;9.73;;;;;;;;;;10365916;28;20901;-77
2023/05/28 00:05:29;;;;;;;14.33;10.43;;;;;;;;;;10383795;28;20029;-77
2023/05/28 00:10:29;;;;;;;18.58;11.70;;;;;;;;;;10378651;28;20045;-78
2023/05/28 00:15:29;;;;;;;21.63;12.10;;;;;;;;;;10384902;28;20033;-74
2023/05/28 00:20:31;;;;;;;19.17;11.30;;;;;;;;;;10360905;28;20492;-77
2023/05/28 00:25:31;;;;;;;23.58;13.88;;;;;;;;;;10382837;28;20053;-78
2023/05/28 00:30:31;;;;;;;19.65;13.15;;;;;;;;;;10376099;28;20148;-77
2023/05/28 00:35:33;;;;;;;22.35;11.68;;;;;;;;;;10408053;28;20527;-78
2023/05/28 00:40:33;;;;;;;21.08;12.52;;;;;;;;;;10443737;28;20044;-77
2023/05/28 00:45:33;;;;;;;22.80;12.00;;;;;;;;;;10408327;28;20503;-77
2023/05/28 00:50:34;;;;;;;20.55;13.23;;;;;;;;;;10399766;28;20537;-76
2023/05/28 00:55:34;;;;;;;23.45;14.48;;;;;;;;;;10424490;28;20029;-78
2023/05/28 01:00:35;;;;;;;27.52;13.88;;;;;;;;;;10424841;28;20403;-75
2023/05/28 01:05:36;;;;;;;21.70;12.13;;;;;;;;;;10424585;28;20033;-74
2023/05/28 01:10:37;;;;;;;21.17;12.80;;;;;;;;;;10424647;28;20041;-79
2023/05/28 01:15:40;;;;;;;19.25;10.98;;;;;;;;;;10427968;28;20580;-77
2023/05/28 01:20:40;;;;;;;19.40;12.18;;;;;;;;;;10433898;28;20053;-79
2023/05/28 01:25:44;;;;;;;24.77;11.63;;;;;;;;;;10421114;28;20558;-79
2023/05/28 01:30:45;;;;;;;18.75;11.68;;;;;;;;;;10425062;28;20076;-77
2023/05/28 01:35:47;;;;;;;17.55;11.82;;;;;;;;;;10381045;28;20523;-77
2023/05/28 01:40:50;;;;;;;19.13;11.40;;;;;;;;;;10359473;28;20072;-78
2023/05/28 01:45:50;;;;;;;17.65;11.30;;;;;;;;;;10369129;28;20515;-74
2023/05/28 01:50:52;;;;;;;19.97;10.87;;;;;;;;;;10383303;28;20128;-77
2023/05/28 01:55:55;;;;;;;19.45;10.82;;;;;;;;;;10377641;28;20666;-78
2023/05/28 02:01:19;;;;;;;14.65;8.93;;;;;;;;;;10382036;28;20056;-77
2023/05/28 02:06:20;;;;;;;15.93;10.18;;;;;;;;;;10382020;28;20037;-75
2023/05/28 02:11:21;;;;;;;18.10;11.38;;;;;;;;;;10397220;28;20872;-75
2023/05/28 02:16:22;;;;;;;22.58;10.77;;;;;;;;;;10382238;28;20028;-73
2023/05/28 02:21:23;;;;;;;21.63;12.07;;;;;;;;;;10397734;28;20488;-79
2023/05/28 02:26:25;;;;;;;15.32;10.23;;;;;;;;;;10390294;28;20029;-75
2023/05/28 02:31:26;;;;;;;18.63;11.82;;;;;;;;;;10339755;28;20046;-79
2023/05/28 02:36:26;;;;;;;16.63;10.50;;;;;;;;;;10339721;28;20034;-74
2023/05/28 02:41:26;;;;;;;16.88;10.00;;;;;;;;;;10339849;28;20076;-78
2023/05/28 02:46:26;;;;;;;16.07;9.60;;;;;;;;;;10358088;28;20407;-73
2023/05/28 02:51:27;;;;;;;13.93;9.45;;;;;;;;;;10372058;28;20037;-74
2023/05/28 02:56:27;;;;;;;13.10;9.07;;;;;;;;;;10398628;28;20103;-74
2023/05/28 03:01:28;;;;;;;18.20;9.52;;;;;;;;;;10356615;28;20455;-79
2023/05/28 03:06:28;;;;;;;13.50;8.50;;;;;;;;;;10340631;28;20527;-77
2023/05/28 03:11:28;;;;;;;18.02;8.98;;;;;;;;;;10385074;28;20026;-74
2023/05/28 03:16:32;;;;;;;12.70;8.48;;;;;;;;;;10383127;28;20500;-77
2023/05/28 03:21:32;;;;;;;15.68;9.27;;;;;;;;;;10383977;28;20103;-73
2023/05/28 03:26:33;;;;;;;14.38;9.40;;;;;;;;;;10395186;28;20116;-72
2023/05/28 03:31:42;;;;;;;13.57;9.43;;;;;;;;;;10380993;28;20053;-73
2023/05/28 03:36:42;;;;;;;12.80;8.55;;;;;;;;;;10400407;28;20028;-74
2023/05/28 03:41:46;;;;;;;13.30;8.63;;;;;;;;;;10383633;28;20348;-73
2023/05/28 03:46:46;;;;;;;13.70;9.45;;;;;;;;;;10384864;28;20038;-73
2023/05/28 03:51:46;;;;;;;14.93;9.07;;;;;;;;;;10364451;28;20034;-74
2023/05/28 03:56:46;;;;;;;14.13;8.57;;;;;;;;;;10380077;28;20121;-81
2023/05/28 04:01:47;;;;;;;13.68;8.93;;;;;;;;;;10374526;28;20089;-77
2023/05/28 04:06:47;;;;;;;14.55;8.88;;;;;;;;;;10375505;28;20435;-77
2023/05/28 04:11:48;;;;;;;19.17;8.85;;;;;;;;;;10385483;28;20029;-76
2023/05/28 04:16:48;;;;;;;11.43;8.73;;;;;;;;;;10374471;28;20563;-76
2023/05/28 04:21:49;;;;;;;17.52;9.82;;;;;;;;;;10402540;28;20458;-78
2023/05/28 04:26:49;;;;;;;14.25;9.23;;;;;;;;;;10402851;28;20584;-77
2023/05/28 04:31:50;;;;;;;16.85;9.63;;;;;;;;;;10402633;28;20045;-79
2023/05/28 04:36:51;;;;;;;16.13;8.52;;;;;;;;;;10401243;28;20029;-74
2023/05/28 04:41:53;;;;;;;13.65;9.82;;;;;;;;;;10387600;28;20399;-73
2023/05/28 04:46:53;;;;;;;18.83;9.68;;;;;;;;;;10409425;28;20416;-77
2023/05/28 04:51:53;;;;;;;15.45;9.32;;;;;;;;;;10400086;28;20036;-74
2023/05/28 04:56:54;;;;;;;17.08;9.80;;;;;;;;;;10402083;28;20029;-74
2023/05/28 05:01:54;;;;;;;21.38;10.18;;;;;;;;;;10400707;28;20036;-76
2023/05/28 05:06:54;;;;;;;13.80;9.50;;;;;;;;;;10400276;28;20033;-74
2023/05/28 05:11:55;;;;;;;17.17;10.45;;;;;;;;;;10380007;28;20443;-74
2023/05/28 05:16:55;;;;;;;16.87;10.30;;;;;;;;;;10359760;28;20621;-74
2023/05/28 05:21:55;;;;;;;19.30;9.77;;;;;;;;;;10379582;28;20742;-75
2023/05/28 05:26:55;;;;;;;14.38;8.68;;;;;;;;;;10358494;28;20524;-76
2023/05/28 05:31:56;;;;;;;17.70;10.13;;;;;;;;;;10364806;28;20045;-73
2023/05/28 05:36:58;;;;;;;19.85;10.05;;;;;;;;;;10375549;28;20159;-79
2023/05/28 05:42:01;;;;;;;13.85;9.43;;;;;;;;;;10366026;28;20100;-74
2023/05/28 05:47:02;;;;;;;16.13;8.18;;;;;;;;;;10384489;28;20125;-74
2023/05/28 05:52:04;;;;;;;14.43;9.33;;;;;;;;;;10356100;28;20044;-77
2023/05/28 05:57:04;;;;;;;12.32;8.80;;;;;;;;;;10391264;28;20668;-75
2023/05/28 06:02:05;;;;;;;18.30;9.88;;;;;;;;;;10366153;28;20032;-77
2023/05/28 06:07:06;;;;;;;14.60;7.80;;;;;;;;;;10371643;28;20069;-78
2023/05/28 06:12:06;;;;;;;15.02;8.98;;;;;;;;;;10345037;28;20089;-78
2023/05/28 06:17:07;;;;;;;12.90;7.63;;;;;;;;;;10352156;28;20116;-79
2023/05/28 06:22:10;;;;;;;12.90;7.93;;;;;;;;;;10381233;28;20596;-77
2023/05/28 06:27:10;;;;;;;16.13;7.78;;;;;;;;;;10380549;28;20041;-74
2023/05/28 06:32:13;;;;;;;19.70;8.57;;;;;;;;;;10401105;28;20534;-77
2023/05/28 06:37:13;;;;;;;11.32;7.80;;;;;;;;;;10397417;28;20021;-73
2023/05/28 06:42:13;;;;;;;14.13;8.52;;;;;;;;;;10396722;28;20099;-74
2023/05/28 06:47:13;;;;;;;17.88;9.90;;;;;;;;;;10387810;28;20029;-73
2023/05/28 06:52:14;;;;;;;20.10;10.10;;;;;;;;;;10367245;28;20566;-80
2023/05/28 06:57:15;;;;;;;14.17;9.17;;;;;;;;;;10385395;28;20488;-78
2023/05/28 07:02:16;;;;;;;10.50;7.28;;;;;;;;;;10385160;28;20026;-75
2023/05/28 07:07:16;;;;;;;11.35;7.22;;;;;;;;;;10381592;28;20563;-79
2023/05/28 07:12:16;;;;;;;14.15;8.02;;;;;;;;;;10379603;28;20057;-80
2023/05/28 07:17:17;;;;;;;9.87;6.73;;;;;;;;;;10384872;28;20036;-83
2023/05/28 07:22:17;;;;;;;13.05;7.22;;;;;;;;;;10379437;28;20283;-82
2023/05/28 07:27:17;;;;;;;9.70;5.85;;;;;;;;;;10375996;28;20494;-77
2023/05/28 07:32:18;;;;;;;11.13;5.35;;;;;;;;;;10382775;28;20118;-76
2023/05/28 07:37:18;;;;;;;7.00;4.43;;;;;;;;;;10380094;28;20500;-75
2023/05/28 07:42:19;;;;;;;7.13;4.90;;;;;;;;;;10377316;28;20095;-80
2023/05/28 07:47:20;;;;;;;7.82;5.70;;;;;;;;;;10385905;28;20031;-78
2023/05/28 07:52:20;;;;;;;9.65;5.28;;;;;;;;;;10379977;28;20034;-74
2023/05/28 07:57:21;;;;;;;12.50;5.20;;;;;;;;;;10388843;28;20095;-73
2023/05/28 08:02:22;;;;;;;5.78;4.10;;;;;;;;;;10377928;28;20504;-80
2023/05/28 08:07:24;;;;;;;10.75;3.70;;;;;;;;;;10381963;28;20041;-79
2023/05/28 08:12:24;;;;;;;11.23;4.00;;;;;;;;;;10382162;28;20072;-74
2023/05/28 08:17:29;;;;;;;5.80;3.80;;;;;;;;;;10388240;28;20545;-79
2023/05/28 08:22:29;;;;;;;5.93;3.88;;;;;;;;;;10376997;28;20037;-74
2023/05/28 08:27:35;;;;;;;6.43;3.87;;;;;;;;;;10378683;28;20025;-79
2023/05/28 08:32:36;;;;;;;3.97;2.55;;;;;;;;;;10380996;28;20053;-76
2023/05/28 08:37:36;;;;;;;4.45;2.30;;;;;;;;;;10382745;28;20041;-73
2023/05/28 08:42:38;;;;;;;2.90;1.67;;;;;;;;;;10383877;28;20029;-77
2023/05/28 08:47:39;;;;;;;8.52;2.70;;;;;;;;;;10386013;28;20029;-73
2023/05/28 08:52:40;;;;;;;4.35;2.47;;;;;;;;;;10381780;28;20041;-74
2023/05/28 08:57:40;;;;;;;6.07;2.30;;;;;;;;;;10382815;28;20083;-73
2023/05/28 09:02:40;;;;;;;9.27;2.43;;;;;;;;;;10382220;28;20033;-78
2023/05/28 09:07:41;;;;;;;7.05;2.80;;;;;;;;;;10375143;28;20038;-74
2023/05/28 09:12:56;;;;;;;6.50;2.43;;;;;;;;;;10373347;28;20456;-75
2023/05/28 09:17:58;;;;;;;7.30;2.03;;;;;;;;;;10376561;28;20087;-74
2023/05/28 09:23:03;;;;;;;5.75;3.28;;;;;;;;;;10380431;28;20041;-74
2023/05/28 09:28:08;;;;;;;14.43;3.45;;;;;;;;;;10372089;28;20033;-83
2023/05/28 09:33:10;;;;;;;7.25;3.53;;;;;;;;;;10386856;28;20049;-74
2023/05/28 09:38:11;;;;;;;9.63;4.22;;;;;;;;;;10383079;28;20190;-77
2023/05/28 09:43:14;;;;;;;8.55;3.80;;;;;;;;;;10386075;28;20095;-72
2023/05/28 09:48:15;;;;;;;7.53;4.00;;;;;;;;;;10383335;28;20510;-80
2023/05/28 09:53:16;;;;;;;12.43;3.70;;;;;;;;;;10373631;28;20038;-79
2023/05/28 09:58:17;;;;;;;10.77;4.47;;;;;;;;;;10374266;28;20041;-77
2023/05/28 10:03:37;;;;;;;9.50;3.17;;;;;;;;;;10376172;28;20041;-82
2023/05/28 10:08:38;;;;;;;10.13;6.13;;;;;;;;;;10380272;28;20030;-78
2023/05/28 10:13:39;;;;;;;4.55;3.33;;;;;;;;;;10371211;28;20042;-79
2023/05/28 10:18:41;;;;;;;5.05;3.60;;;;;;;;;;10395564;28;20021;-80
2023/05/28 10:23:42;;;;;;;9.05;3.63;;;;;;;;;;10373549;28;20113;-79
2023/05/28 10:28:43;;;;;;;6.10;3.72;;;;;;;;;;10366994;28;20043;-79
2023/05/28 10:33:43;;;;;;;11.45;4.28;;;;;;;;;;10376565;28;20042;-86
2023/05/28 10:38:44;;;;;;;9.90;4.50;;;;;;;;;;10371822;28;20033;-78
2023/05/28 10:43:45;;;;;;;8.60;3.97;;;;;;;;;;10381110;28;20100;-79
2023/05/28 10:49:05;;;;;;;7.90;4.85;;;;;;;;;;10388978;28;20083;-80
2023/05/28 10:54:39;;;;;;;7.53;4.78;;;;;;;;;;10390455;28;20419;-77
2023/05/28 10:59:51;;;;;;;6.22;4.07;;;;;;;;;;10370927;28;20072;-82
2023/05/28 11:04:56;;;;;;;6.85;4.30;;;;;;;;;;10377806;28;20025;-80
2023/05/28 11:09:58;;;;;;;5.45;4.30;;;;;;;;;;10394885;28;20152;-74
2023/05/28 11:15:01;;;;;;;11.25;4.75;;;;;;;;;;10399133;28;20056;-81
2023/05/28 11:20:05;;;;;;;6.88;4.40;;;;;;;;;;10394277;28;20029;-79
2023/05/28 11:25:09;;;;;;;12.52;5.05;;;;;;;;;;10404807;28;20087;-75
2023/05/28 11:30:16;;;;;;;10.13;5.68;;;;;;;;;;10409404;28;20616;-75
2023/05/28 11:35:17;;;;;;;7.63;4.90;;;;;;;;;;10388051;28;20037;-78
2023/05/28 11:40:17;;;;;;;12.93;5.95;;;;;;;;;;10398907;28;20029;-83
2023/05/28 11:45:18;;;;;;;8.40;5.63;;;;;;;;;;10384510;28;20440;-77
2023/05/28 11:50:18;;;;;;;13.85;5.40;;;;;;;;;;10373932;28;20763;-74
2023/05/28 11:55:19;;;;;;;7.80;5.50;;;;;;;;;;10355370;28;20187;-81
2023/05/28 12:00:21;;;;;;;9.30;4.90;;;;;;;;;;10362348;28;20291;-77
2023/05/28 12:05:21;;;;;;;11.88;5.80;;;;;;;;;;10378520;28;20048;-81
2023/05/28 12:10:26;;;;;;;7.35;5.68;;;;;;;;;;10377531;28;20041;-76
2023/05/28 12:15:31;;;;;;;8.45;6.32;;;;;;;;;;10374906;28;20037;-80
2023/05/28 12:20:33;;;;;;;13.90;6.05;;;;;;;;;;10372053;28;20018;-75
2023/05/28 12:25:49;;;;;;;15.38;6.93;;;;;;;;;;10374386;28;20032;-79
2023/05/28 12:30:50;;;;;;;8.88;6.22;;;;;;;;;;10369270;28;20750;-78
2023/05/28 12:35:51;;;;;;;10.75;6.50;;;;;;;;;;10372018;28;20049;-78
2023/05/28 12:40:51;;;;;;;10.75;5.95;;;;;;;;;;10367268;28;20037;-76
2023/05/28 12:45:51;;;;;;;11.55;7.25;;;;;;;;;;10377070;28;20107;-76
2023/05/28 12:50:51;;;;;;;14.73;8.32;;;;;;;;;;10365060;28;20061;-78
2023/05/28 12:55:51;;;;;;;6.90;5.07;;;;;;;;;;10369765;28;20053;-77
2023/05/28 13:00:52;;;;;;;12.95;5.82;;;;;;;;;;10381885;28;20029;-78
2023/05/28 13:05:52;;;;;;;8.50;5.68;;;;;;;;;;10366978;28;20042;-76
2023/05/28 13:10:53;;;;;;;8.57;6.57;;;;;;;;;;10373564;28;20467;-81
2023/05/28 13:16:35;;;;;;;10.27;7.57;;;;;;;;;;10376231;28;20107;-81
2023/05/28 13:21:36;;;;;;;8.38;6.65;;;;;;;;;;10382177;28;20522;-83
2023/05/28 13:26:39;;;;;;;9.27;6.13;;;;;;;;;;10372812;28;20041;-83
2023/05/28 13:31:50;;;;;;;9.18;6.50;;;;;;;;;;10353869;28;20057;-80
2023/05/28 13:36:51;;;;;;;11.35;6.28;;;;;;;;;;10325294;28;20048;-78
2023/05/28 13:41:51;;;;;;;12.27;6.22;;;;;;;;;;10334493;28;20026;-77
2023/05/28 13:46:52;;;;;;;10.40;6.93;;;;;;;;;;10334361;28;20038;-78
2023/05/28 13:51:52;;;;;;;8.80;6.03;;;;;;;;;;10332116;28;20065;-82
2023/05/28 13:56:54;;;;;;;8.95;5.78;;;;;;;;;;10333300;28;20729;-81
2023/05/28 14:01:55;;;;;;;6.50;5.18;;;;;;;;;;10350511;28;20470;-77
2023/05/28 14:06:55;;;;;;;8.48;5.20;;;;;;;;;;10352252;28;20065;-77
2023/05/28 14:11:56;;;;;;;7.90;5.07;;;;;;;;;;10353032;28;20536;-82
2023/05/28 14:16:56;;;;;;;9.30;7.80;;;;;;;;;;10333472;28;20149;-75
2023/05/28 14:21:56;;;;;;;8.13;6.47;;;;;;;;;;10365932;28;20268;-80
2023/05/28 14:27:03;;;;;;;7.80;5.95;;;;;;;;;;10386373;28;20041;-79
2023/05/28 14:32:03;;;;;;;5.55;4.70;;;;;;;;;;10382915;28;20049;-76
2023/05/28 14:37:05;;;;;;;6.40;4.80;;;;;;;;;;10391789;28;20527;-77
2023/05/28 14:42:06;;;;;;;12.95;4.85;;;;;;;;;;10381309;28;20295;-74
2023/05/28 14:47:06;;;;;;;11.82;4.35;;;;;;;;;;10393924;28;20025;-75
2023/05/28 14:52:21;;;;;;;5.22;4.63;;;;;;;;;;10395326;28;20045;-81
2023/05/28 14:57:23;;;;;;;7.82;4.97;;;;;;;;;;10398842;28;20072;-85
2023/05/28 15:02:23;;;;;;;4.47;3.80;;;;;;;;;;10400113;28;20499;-77
2023/05/28 15:07:23;;;;;;;8.82;5.28;;;;;;;;;;10382359;28;20044;-80
2023/05/28 15:12:24;;;;;;;6.63;4.38;;;;;;;;;;10380944;28;20029;-77
2023/05/28 15:17:25;;;;;;;10.77;4.18;;;;;;;;;;10375036;28;20029;-79
2023/05/28 15:22:25;;;;;;;8.63;3.75;;;;;;;;;;10386334;28;20644;-80
2023/05/28 15:27:25;;;;;;;7.30;4.68;;;;;;;;;;10388125;28;20035;-82
2023/05/28 15:32:26;;;;;;;7.27;4.60;;;;;;;;;;10391540;28;20135;-83
2023/05/28 15:37:26;;;;;;;8.82;4.53;;;;;;;;;;10386996;28;20051;-81
2023/05/28 15:42:27;;;;;;;7.23;4.63;;;;;;;;;;10384957;28;20030;-81
2023/05/28 15:47:29;;;;;;;7.43;4.57;;;;;;;;;;10388601;28;20034;-81
2023/05/28 15:52:32;;;;;;;9.57;4.65;;;;;;;;;;10385793;28;20756;-78
2023/05/28 15:57:33;;;;;;;9.40;5.15;;;;;;;;;;10375562;28;20625;-82
2023/05/28 16:02:36;;;;;;;8.50;5.00;;;;;;;;;;10390152;28;20190;-82
2023/05/28 16:07:38;;;;;;;5.38;4.57;;;;;;;;;;10382536;28;20423;-77
2023/05/28 16:12:40;;;;;;;7.65;4.50;;;;;;;;;;10386962;28;20029;-80
2023/05/28 16:17:44;;;;;;;5.53;3.80;;;;;;;;;;10387675;28;20565;-77
2023/05/28 16:22:47;;;;;;;8.07;4.43;;;;;;;;;;10397616;28;20041;-81
2023/05/28 16:27:52;;;;;;;5.38;3.70;;;;;;;;;;10397965;28;20029;-82
2023/05/28 16:33:01;;;;;;;4.97;3.30;;;;;;;;;;10395227;28;20038;-82
2023/05/28 16:38:12;;;;;;;6.63;3.97;;;;;;;;;;10396902;28;20045;-81
2023/05/28 16:43:17;;;;;;;10.45;4.28;;;;;;;;;;10384767;28;20534;-77
2023/05/28 16:48:18;;;;;;;8.38;4.80;;;;;;;;;;10379380;28;20091;-80
2023/05/28 16:53:24;;;;;;;4.38;3.53;;;;;;;;;;10386328;28;20490;-82
2023/05/28 16:58:25;;;;;;;6.82;3.75;;;;;;;;;;10389128;28;20036;-74
2023/05/28 17:03:37;;;;;;;6.72;3.30;;;;;;;;;;10383069;28;20099;-82
2023/05/28 17:08:40;;;;;;;8.82;3.83;;;;;;;;;;10390827;28;20048;-79
2023/05/28 17:13:41;;;;;;;5.13;3.55;;;;;;;;;;10389299;28;20124;-78
2023/05/28 17:18:41;;;;;;;4.40;3.53;;;;;;;;;;10381201;28;20056;-77
2023/05/28 17:23:44;;;;;;;10.18;4.07;;;;;;;;;;10396808;28;20486;-76
2023/05/28 17:28:44;;;;;;;7.72;3.58;;;;;;;;;;10387174;28;21641;-77
2023/05/28 17:33:47;;;;;;;6.45;3.97;;;;;;;;;;10372086;28;21074;-78
2023/05/28 17:38:47;;;;;;;6.53;3.70;;;;;;;;;;10371010;28;20029;-79
2023/05/28 17:43:54;;;;;;;9.25;4.00;;;;;;;;;;10400987;28;20036;-73
2023/05/28 17:48:54;;;;;;;7.13;3.35;;;;;;;;;;10378933;28;20080;-76
2023/05/28 17:53:54;;;;;;;6.32;4.47;;;;;;;;;;10401117;28;20033;-77
2023/05/28 17:59:07;;;;;;;9.32;3.97;;;;;;;;;;10385578;28;20026;-73
2023/05/28 18:04:14;;;;;;;11.05;3.63;;;;;;;;;;10393399;28;20125;-74
2023/05/28 18:09:19;;;;;;;5.82;3.63;;;;;;;;;;10392744;28;20056;-81
2023/05/28 18:14:20;;;;;;;7.53;4.60;;;;;;;;;;10389351;28;20486;-81
2023/05/28 18:19:20;;;;;;;8.32;4.25;;;;;;;;;;10379891;28;20087;-75
2023/05/28 18:24:29;;;;;;;9.38;4.35;;;;;;;;;;10353123;28;20052;-81
2023/05/28 18:29:33;;;;;;;7.72;3.72;;;;;;;;;;10376627;28;20037;-77
2023/05/28 18:34:38;;;;;;;6.70;2.80;;;;;;;;;;10417042;28;20045;-81
2023/05/28 18:39:40;;;;;;;3.88;2.20;;;;;;;;;;10418720;28;20087;-79
2023/05/28 18:44:42;;;;;;;3.95;2.80;;;;;;;;;;10415151;28;20414;-77
2023/05/28 18:49:42;;;;;;;4.85;2.60;;;;;;;;;;10396465;28;20033;-78
2023/05/28 18:54:42;;;;;;;6.10;3.28;;;;;;;;;;10422476;28;20048;-75
2023/05/28 18:59:54;;;;;;;11.02;3.03;;;;;;;;;;10422077;28;20025;-82
2023/05/28 19:04:56;;;;;;;14.75;3.67;;;;;;;;;;10380008;28;20043;-78
2023/05/28 19:10:03;;;;;;;9.35;3.70;;;;;;;;;;10415989;28;20085;-79
2023/05/28 19:15:03;;;;;;;8.00;3.80;;;;;;;;;;10441629;28;20112;-75
2023/05/28 19:20:05;;;;;;;5.00;3.20;;;;;;;;;;10437223;28;20044;-78
2023/05/28 19:25:06;;;;;;;12.68;3.85;;;;;;;;;;10416549;28;20028;-79
2023/05/28 19:30:08;;;;;;;10.05;3.25;;;;;;;;;;10433015;28;20128;-79
2023/05/28 19:35:08;;;;;;;7.90;4.40;;;;;;;;;;10406427;28;20041;-77
2023/05/28 19:40:09;;;;;;;8.37;4.47;;;;;;;;;;10419720;28;20753;-83
2023/05/28 19:45:10;;;;;;;10.48;6.00;;;;;;;;;;10426181;28;20575;-81
2023/05/28 19:50:10;;;;;;;8.27;4.10;;;;;;;;;;10427048;28;20077;-80
2023/05/28 19:55:16;;;;;;;5.70;3.63;;;;;;;;;;10431671;28;20187;-80
2023/05/28 20:00:17;;;;;;;10.48;4.30;;;;;;;;;;10417741;28;20260;-76
2023/05/28 20:05:17;;;;;;;6.33;3.93;;;;;;;;;;10423853;28;20029;-79
2023/05/28 20:10:17;;;;;;;11.53;5.50;;;;;;;;;;10416620;28;20099;-75
2023/05/28 20:15:18;;;;;;;10.75;5.50;;;;;;;;;;10446064;28;20829;-77
2023/05/28 20:20:20;;;;;;;11.30;6.15;;;;;;;;;;10420966;28;20071;-81
2023/05/28 20:25:20;;;;;;;16.55;7.47;;;;;;;;;;10424155;28;20044;-74
2023/05/28 20:30:21;;;;;;;15.40;7.15;;;;;;;;;;10425531;28;20048;-76
2023/05/28 20:35:23;;;;;;;10.40;5.03;;;;;;;;;;10374723;28;20188;-74
2023/05/28 20:40:24;;;;;;;11.65;6.00;;;;;;;;;;10373554;28;20451;-76
2023/05/28 20:45:24;;;;;;;12.90;6.10;;;;;;;;;;10380492;28;20030;-78
2023/05/28 20:50:30;;;;;;;11.55;6.20;;;;;;;;;;10379649;28;20046;-81
2023/05/28 20:55:30;;;;;;;16.20;6.68;;;;;;;;;;10356610;28;20047;-78
2023/05/28 21:00:30;;;;;;;11.52;6.32;;;;;;;;;;10371535;28;20033;-77
2023/05/28 21:05:30;;;;;;;16.98;7.47;;;;;;;;;;10375393;28;20052;-77
2023/05/28 21:10:31;;;;;;;16.08;7.78;;;;;;;;;;10352850;28;20041;-77
2023/05/28 21:15:31;;;;;;;9.27;6.53;;;;;;;;;;10377896;28;20554;-75
2023/05/28 21:20:32;;;;;;;13.07;7.93;;;;;;;;;;10373266;28;20097;-78
2023/05/28 21:26:06;;;;;;;16.92;7.15;;;;;;;;;;10371864;28;20121;-78
2023/05/28 21:31:07;;;;;;;11.68;6.55;;;;;;;;;;10330221;28;20324;-77
2023/05/28 21:36:07;;;;;;;10.70;5.60;;;;;;;;;;10377379;28;20033;-77
2023/05/28 21:41:07;;;;;;;11.20;6.53;;;;;;;;;;10395967;28;20261;-78
2023/05/28 21:46:09;;;;;;;9.15;5.93;;;;;;;;;;10357548;28;20112;-82
2023/05/28 21:51:11;;;;;;;9.93;4.95;;;;;;;;;;10377248;28;20427;-77
2023/05/28 21:56:15;;;;;;;13.60;5.93;;;;;;;;;;10393211;28;20456;-78
2023/05/28 22:01:19;;;;;;;9.35;5.47;;;;;;;;;;10357004;28;20099;-75
2023/05/28 22:06:20;;;;;;;23.90;6.18;;;;;;;;;;10339499;28;20038;-77
2023/05/28 22:11:21;;;;;;;10.82;5.65;;;;;;;;;;10401276;28;20497;-77
2023/05/28 22:16:21;;;;;;;12.48;5.07;;;;;;;;;;10398533;28;20442;-81
2023/05/28 22:21:23;;;;;;;9.80;5.97;;;;;;;;;;10397230;28;20186;-82
2023/05/28 22:26:24;;;;;;;12.07;6.30;;;;;;;;;;10378733;28;20029;-77
2023/05/28 22:31:24;;;;;;;12.55;5.25;;;;;;;;;;10379385;28;20195;-75
2023/05/28 22:36:26;;;;;;;11.80;5.03;;;;;;;;;;10354785;28;20053;-78
2023/05/28 22:41:27;;;;;;;10.35;5.20;;;;;;;;;;10366037;28;20406;-77
2023/05/28 22:46:30;;;;;;;6.82;5.05;;;;;;;;;;10399731;28;20018;-81
2023/05/28 22:51:32;;;;;;;13.32;5.38;;;;;;;;;;10395465;28;20033;-81
2023/05/28 22:56:32;;;;;;;11.25;5.53;;;;;;;;;;10406656;28;20056;-77
2023/05/28 23:01:33;;;;;;;9.70;5.07;;;;;;;;;;10397053;28;20033;-78
2023/05/28 23:06:36;;;;;;;9.77;5.40;;;;;;;;;;10395314;28;20033;-77
2023/05/28 23:11:38;;;;;;;13.07;5.32;;;;;;;;;;10397126;28;20033;-78
2023/05/28 23:16:39;;;;;;;9.45;4.80;;;;;;;;;;10370700;28;20033;-77
2023/05/28 23:21:40;;;;;;;13.18;5.95;;;;;;;;;;10376064;28;20486;-78
2023/05/28 23:26:53;;;;;;;9.77;5.43;;;;;;;;;;10374660;28;20029;-81
2023/05/28 23:31:54;;;;;;;9.73;5.15;;;;;;;;;;10367519;28;20654;-81
2023/05/28 23:37:15;;;;;;;8.30;5.28;;;;;;;;;;10409603;28;20099;-84
2023/05/28 23:42:15;;;;;;;9.90;5.68;;;;;;;;;;10366737;28;20034;-81
2023/05/28 23:47:17;;;;;;;9.97;6.07;;;;;;;;;;10330205;28;20042;-78
2023/05/28 23:52:17;;;;;;;8.65;5.60;;;;;;;;;;10348386;28;20045;-83
2023/05/28 23:57:17;;;;;;;9.65;5.40;;;;;;;;;;10377349;28;20032;-78
